Time;durP1;ratioP1;P1;durP2;ratioP2;P2;SDS_P1;SDS_P2;PMS_P1;PMS_P2;Temp;Humidity;BMP_temperature;BMP_pressure;BME280_temperature;BME280_humidity;BME280_pressure;Samples;Min_cycle;Max_cycle;Signal;HPM_P1;HPM_P2
2024/01/03 00:00:33;;;;;;;14.93;1.93;;;10.60;99.90;;;;;;5016447;28;20204;-44
2024/01/03 00:03:00;;;;;;;5.60;1.30;;;10.60;99.90;;;;;;5034482;28;20580;-46
2024/01/03 00:05:36;;;;;;;9.63;1.90;;;10.60;99.90;;;;;;5034074;28;20181;-40
2024/01/03 00:08:25;;;;;;;8.20;1.90;;;10.60;99.90;;;;;;5034061;28;20187;-44
2024/01/03 00:10:55;;;;;;;6.53;1.27;;;10.60;99.90;;;;;;5033804;28;20233;-44
2024/01/03 00:13:30;;;;;;;11.33;1.53;;;10.50;99.90;;;;;;5033517;28;20187;-44
2024/01/03 00:15:59;;;;;;;5.07;1.00;;;10.50;99.90;;;;;;5034184;28;20191;-44
2024/01/03 00:18:49;;;;;;;6.97;1.67;;;10.50;99.90;;;;;;5033700;28;20664;-44
2024/01/03 00:21:29;;;;;;;5.47;1.43;;;10.40;99.90;;;;;;5034036;28;20286;-43
2024/01/03 00:24:03;;;;;;;3.13;0.70;;;10.40;99.90;;;;;;5016301;28;20674;-44
2024/01/03 00:26:32;;;;;;;6.23;1.40;;;10.40;99.90;;;;;;5033774;28;20212;-44
2024/01/03 00:28:57;;;;;;;3.37;1.30;;;10.40;99.90;;;;;;5033347;28;20271;-42
2024/01/03 00:31:44;;;;;;;7.93;1.60;;;10.40;99.90;;;;;;5033661;28;20275;-43
2024/01/03 00:34:19;;;;;;;5.07;1.33;;;10.30;99.90;;;;;;5035338;28;20270;-43
2024/01/03 00:36:53;;;;;;;9.20;1.30;;;10.40;99.90;;;;;;5035440;28;20203;-44
2024/01/03 00:39:32;;;;;;;3.60;0.90;;;10.40;99.90;;;;;;5033543;28;20202;-44
2024/01/03 00:41:58;;;;;;;8.03;1.33;;;10.40;99.90;;;;;;5016245;28;20195;-45
2024/01/03 00:44:26;;;;;;;4.63;1.90;;;10.40;99.90;;;;;;5033869;28;20181;-41
2024/01/03 00:46:55;;;;;;;5.50;1.23;;;10.40;99.90;;;;;;5032983;28;20252;-43
2024/01/03 00:49:21;;;;;;;5.70;1.10;;;10.40;99.90;;;;;;5016106;28;20648;-44
2024/01/03 00:51:48;;;;;;;6.30;1.00;;;10.40;99.90;;;;;;5016110;28;20299;-44
2024/01/03 00:54:16;;;;;;;2.80;1.37;;;10.40;99.90;;;;;;5033673;28;20184;-44
2024/01/03 00:56:46;;;;;;;8.37;1.10;;;10.30;99.90;;;;;;4999804;28;20189;-42
2024/01/03 00:59:15;;;;;;;5.00;0.60;;;10.30;99.90;;;;;;5033280;28;20207;-45
2024/01/03 01:01:44;;;;;;;3.70;0.97;;;10.30;99.90;;;;;;5033512;28;20250;-44
2024/01/03 01:04:10;;;;;;;1.33;0.73;;;10.30;99.90;;;;;;5033527;28;20180;-45
2024/01/03 01:06:36;;;;;;;3.20;0.97;;;10.30;99.90;;;;;;5033282;28;20188;-43
2024/01/03 01:09:04;;;;;;;4.03;1.33;;;10.30;99.90;;;;;;5033245;28;20592;-42
2024/01/03 01:11:30;;;;;;;6.00;1.47;;;10.30;99.90;;;;;;5033197;28;20654;-44
2024/01/03 01:13:56;;;;;;;4.33;1.10;;;10.30;99.90;;;;;;5033193;28;20640;-43
2024/01/03 01:16:23;;;;;;;4.30;1.20;;;10.30;99.90;;;;;;5015622;28;20194;-44
2024/01/03 01:18:48;;;;;;;6.07;0.80;;;10.20;99.90;;;;;;5015621;28;20200;-44
2024/01/03 01:21:14;;;;;;;2.60;0.80;;;10.20;99.90;;;;;;5033118;28;20195;-45
2024/01/03 01:23:42;;;;;;;2.20;0.60;;;10.30;99.90;;;;;;5032402;28;20195;-45
2024/01/03 01:26:11;;;;;;;4.17;1.20;;;10.20;99.90;;;;;;5005324;28;20204;-43
2024/01/03 01:28:42;;;;;;;4.80;1.10;;;10.30;99.90;;;;;;5033658;28;20652;-45
2024/01/03 01:31:07;;;;;;;1.40;0.70;;;10.30;99.90;;;;;;5033252;28;20204;-44
2024/01/03 01:33:33;;;;;;;2.50;0.93;;;10.30;99.90;;;;;;5033228;28;20183;-42
2024/01/03 01:35:59;;;;;;;5.77;1.20;;;10.30;99.90;;;;;;5015318;28;20216;-41
2024/01/03 01:38:27;;;;;;;4.83;1.20;;;10.30;99.90;;;;;;5032788;28;20704;-44
2024/01/03 01:40:53;;;;;;;3.63;1.07;;;10.30;99.90;;;;;;5015328;28;20219;-46
2024/01/03 01:43:19;;;;;;;6.63;0.97;;;10.30;99.90;;;;;;5033115;28;20644;-43
2024/01/03 01:45:47;;;;;;;6.30;1.00;;;10.30;99.90;;;;;;5015203;28;20635;-44
2024/01/03 01:48:15;;;;;;;4.87;1.27;;;10.30;99.90;;;;;;5032849;28;20190;-43
2024/01/03 01:50:40;;;;;;;4.60;1.43;;;10.30;99.90;;;;;;5032811;28;20213;-44
2024/01/03 01:53:10;;;;;;;8.30;0.80;;;10.30;99.90;;;;;;5032857;28;20640;-42
2024/01/03 01:55:39;;;;;;;3.77;0.83;;;10.30;99.90;;;;;;5033360;28;20183;-43
2024/01/03 01:58:07;;;;;;;10.43;1.53;;;10.30;99.90;;;;;;5018794;28;20215;-44
2024/01/03 02:00:34;;;;;;;7.47;0.90;;;10.30;99.90;;;;;;5036550;28;20271;-43
2024/01/03 02:03:01;;;;;;;8.03;1.20;;;10.30;99.90;;;;;;5036449;28;20173;-43
2024/01/03 02:05:27;;;;;;;5.70;1.00;;;10.30;99.90;;;;;;5036308;28;20193;-43
2024/01/03 02:08:18;;;;;;;5.90;1.20;;;10.30;99.90;;;;;;5036350;28;20229;-44
2024/01/03 02:10:44;;;;;;;3.70;0.47;;;10.30;99.90;;;;;;5036390;28;20222;-44
2024/01/03 02:13:09;;;;;;;3.30;0.83;;;10.30;99.90;;;;;;5036288;28;20537;-44
2024/01/03 02:15:35;;;;;;;6.27;1.30;;;10.30;99.90;;;;;;5036847;28;20307;-44
2024/01/03 02:18:08;;;;;;;1.93;0.60;;;10.40;99.90;;;;;;5037194;28;20204;-44
2024/01/03 02:20:36;;;;;;;9.50;1.00;;;10.30;99.90;;;;;;5019340;28;20201;-44
2024/01/03 02:23:02;;;;;;;6.37;1.00;;;10.30;99.90;;;;;;5036694;28;20542;-44
2024/01/03 02:25:27;;;;;;;4.97;0.97;;;10.30;99.90;;;;;;5036394;28;20177;-45
2024/01/03 02:31:15;;;;;;;4.83;1.13;;;10.20;99.90;;;;;;5035925;28;20593;-43
2024/01/03 02:33:41;;;;;;;2.87;1.03;;;10.20;99.90;;;;;;5036202;28;20275;-42
2024/01/03 02:36:07;;;;;;;3.40;0.80;;;10.20;99.90;;;;;;5018225;28;20264;-46
2024/01/03 02:38:33;;;;;;;1.53;0.50;;;10.20;99.90;;;;;;5017935;28;20216;-44
2024/01/03 02:40:58;;;;;;;6.20;0.80;;;10.20;99.90;;;;;;5035817;28;20207;-43
2024/01/03 02:43:24;;;;;;;3.20;0.70;;;10.20;99.90;;;;;;5035678;28;20203;-45
2024/01/03 02:45:49;;;;;;;3.97;0.90;;;10.20;99.90;;;;;;5035690;28;20199;-45
2024/01/03 02:48:19;;;;;;;4.33;1.17;;;10.20;99.90;;;;;;5035862;28;20667;-44
2024/01/03 02:50:48;;;;;;;5.37;1.10;;;10.30;99.90;;;;;;5035952;28;20211;-45
2024/01/03 02:53:16;;;;;;;3.03;0.80;;;10.20;99.90;;;;;;5018567;28;20208;-45
2024/01/03 02:55:41;;;;;;;2.90;0.87;;;10.30;99.90;;;;;;5036045;28;20204;-43
2024/01/03 02:58:07;;;;;;;1.53;0.70;;;10.20;99.90;;;;;;5017555;28;20252;-45
2024/01/03 03:00:33;;;;;;;5.20;1.00;;;10.20;99.90;;;;;;5017704;28;20739;-45
2024/01/03 03:02:59;;;;;;;3.73;0.77;;;10.20;99.90;;;;;;5035660;28;20189;-45
2024/01/03 03:05:25;;;;;;;4.97;0.93;;;10.20;99.90;;;;;;5017841;28;20586;-43
2024/01/03 03:07:51;;;;;;;1.83;0.90;;;10.20;99.90;;;;;;5035467;28;20180;-45
2024/01/03 03:10:16;;;;;;;3.03;1.00;;;10.10;99.90;;;;;;5034626;28;20204;-42
2024/01/03 03:12:43;;;;;;;1.73;0.67;;;10.20;99.90;;;;;;5036241;28;20176;-43
2024/01/03 03:15:09;;;;;;;3.90;1.53;;;10.10;99.90;;;;;;5035937;28;20187;-44
2024/01/03 03:17:35;;;;;;;3.77;0.97;;;10.10;99.90;;;;;;5035206;28;20184;-44
2024/01/03 03:20:00;;;;;;;4.97;1.20;;;10.10;99.90;;;;;;5035173;28;20306;-44
2024/01/03 03:22:26;;;;;;;4.37;1.20;;;10.10;99.90;;;;;;5035123;28;20258;-44
2024/01/03 03:24:55;;;;;;;6.90;1.30;;;10.10;99.90;;;;;;5035055;28;20244;-43
2024/01/03 03:27:22;;;;;;;2.87;0.90;;;10.00;99.90;;;;;;5000931;28;20656;-43
2024/01/03 03:29:47;;;;;;;3.50;1.13;;;10.00;99.90;;;;;;5035112;28;20208;-44
2024/01/03 03:32:13;;;;;;;8.23;1.87;;;10.00;99.90;;;;;;5034739;28;20188;-43
2024/01/03 03:34:40;;;;;;;9.50;2.07;;;10.00;99.90;;;;;;5018298;28;20189;-42
2024/01/03 03:37:12;;;;;;;4.17;0.90;;;10.00;99.90;;;;;;5035400;28;20733;-43
2024/01/03 03:39:37;;;;;;;5.07;1.13;;;10.00;99.90;;;;;;5035176;28;20235;-43
2024/01/03 03:42:03;;;;;;;4.73;1.20;;;10.00;99.90;;;;;;5034895;28;20208;-43
2024/01/03 03:44:29;;;;;;;8.37;1.37;;;10.00;99.90;;;;;;5034771;28;20192;-43
2024/01/03 03:46:55;;;;;;;11.80;1.77;;;10.00;99.90;;;;;;5017185;28;20640;-42
2024/01/03 03:49:22;;;;;;;9.60;1.50;;;10.00;99.90;;;;;;5034764;28;20180;-42
2024/01/03 03:51:48;;;;;;;4.57;1.27;;;10.00;99.90;;;;;;5034700;28;20640;-45
2024/01/03 03:54:19;;;;;;;6.97;1.30;;;10.00;99.90;;;;;;5034290;28;20191;-43
2024/01/03 03:56:45;;;;;;;4.37;1.00;;;10.00;99.90;;;;;;5034553;28;20233;-44
2024/01/03 03:59:11;;;;;;;2.53;0.90;;;10.00;99.90;;;;;;5034181;28;20287;-45
2024/01/03 04:01:40;;;;;;;3.40;1.03;;;10.00;99.90;;;;;;5034057;28;20196;-44
2024/01/03 04:04:05;;;;;;;6.47;1.13;;;10.00;99.90;;;;;;5034384;28;20173;-46
2024/01/03 04:06:31;;;;;;;7.13;1.60;;;10.10;99.90;;;;;;5034048;28;20187;-43
2024/01/03 04:08:57;;;;;;;7.33;1.83;;;10.10;99.90;;;;;;5033567;28;20210;-43
2024/01/03 04:11:24;;;;;;;11.50;2.27;;;10.10;99.90;;;;;;5017035;28;20293;-42
2024/01/03 04:13:53;;;;;;;8.57;1.37;;;10.10;99.90;;;;;;5034037;28;20682;-44
2024/01/03 04:16:19;;;;;;;5.97;1.47;;;10.00;99.90;;;;;;5033906;28;20190;-43
2024/01/03 04:18:48;;;;;;;5.83;0.83;;;10.00;99.90;;;;;;5034189;28;20588;-43
2024/01/03 04:21:13;;;;;;;5.50;1.27;;;10.00;99.90;;;;;;5032926;28;20603;-45
2024/01/03 04:23:39;;;;;;;9.67;1.37;;;10.00;99.90;;;;;;5033801;28;20180;-45
2024/01/03 04:26:04;;;;;;;2.97;1.00;;;10.10;99.90;;;;;;5033844;28;20177;-44
2024/01/03 04:28:32;;;;;;;4.87;1.33;;;10.10;99.90;;;;;;5033784;28;20188;-44
2024/01/03 04:30:58;;;;;;;5.60;1.30;;;10.00;99.90;;;;;;5033861;28;20200;-44
2024/01/03 04:33:23;;;;;;;3.63;1.13;;;10.00;99.90;;;;;;5033752;28;20192;-44
2024/01/03 04:35:49;;;;;;;13.83;1.73;;;10.00;99.90;;;;;;5029568;28;20182;-43
2024/01/03 04:45:55;;;;;;;10.93;2.07;;;9.70;99.90;;;;;;4992505;28;20221;-47
2024/01/03 04:51:48;;;;;;;3.97;0.77;;;9.60;99.90;;;;;;4994439;28;20184;-45
2024/01/03 04:54:21;;;;;;;6.97;1.77;;;9.60;99.90;;;;;;4976619;28;20594;-46
2024/01/03 04:56:53;;;;;;;5.30;1.23;;;9.50;99.90;;;;;;4959229;28;20197;-45
2024/01/03 04:59:21;;;;;;;6.80;1.40;;;9.50;99.90;;;;;;4991240;28;20221;-47
2024/01/03 05:01:47;;;;;;;4.27;1.50;;;9.50;99.90;;;;;;4994014;28;20197;-44
2024/01/03 05:04:24;;;;;;;7.23;1.97;;;9.40;99.90;;;;;;4994265;28;20180;-45
2024/01/03 05:09:26;;;;;;;6.50;1.80;;;9.40;99.90;;;;;;5428219;22;20298;-44
2024/01/03 05:11:54;;;;;;;11.27;1.47;;;9.40;99.90;;;;;;5015898;28;20181;-45
2024/01/03 05:14:20;;;;;;;11.07;1.93;;;9.30;99.90;;;;;;5033419;28;20180;-45
2024/01/03 05:16:47;;;;;;;9.30;1.70;;;9.30;99.90;;;;;;5015673;28;20552;-44
2024/01/03 05:20:07;;;;;;;11.20;1.70;;;9.30;99.90;;;;;;5015373;28;20275;-45
2024/01/03 05:22:33;;;;;;;11.83;2.07;;;9.30;99.90;;;;;;5030393;28;20184;-46
2024/01/03 05:25:00;;;;;;;13.57;2.43;;;9.30;99.90;;;;;;5033358;28;20636;-46
2024/01/03 05:27:26;;;;;;;11.03;1.77;;;9.30;99.90;;;;;;5033059;28;20166;-45
2024/01/03 05:29:56;;;;;;;10.97;2.37;;;9.30;99.90;;;;;;5033247;28;20296;-46
2024/01/03 05:32:22;;;;;;;6.13;1.60;;;9.30;99.90;;;;;;5034768;28;20190;-47
2024/01/03 05:34:50;;;;;;;14.63;1.73;;;9.30;99.90;;;;;;5037185;28;20577;-45
2024/01/03 05:37:27;;;;;;;8.33;1.83;;;9.40;99.90;;;;;;5019161;28;20184;-45
2024/01/03 05:39:55;;;;;;;11.43;2.10;;;9.30;99.90;;;;;;5037034;28;20219;-45
2024/01/03 05:42:23;;;;;;;11.53;2.03;;;9.30;99.90;;;;;;5019109;28;20180;-44
2024/01/03 05:44:48;;;;;;;13.70;3.10;;;9.40;99.90;;;;;;5036749;28;20179;-47
2024/01/03 05:47:18;;;;;;;17.30;3.27;;;9.40;99.90;;;;;;5036729;28;20173;-46
2024/01/03 05:49:43;;;;;;;16.73;3.50;;;9.40;99.90;;;;;;5036891;28;20210;-45
2024/01/03 05:52:09;;;;;;;10.53;2.60;;;9.40;99.90;;;;;;5037131;28;20252;-45
2024/01/03 05:54:38;;;;;;;12.73;2.50;;;9.40;99.90;;;;;;5036570;28;20183;-45
2024/01/03 05:57:05;;;;;;;15.10;2.53;;;9.30;99.90;;;;;;5036525;28;20210;-46
2024/01/03 05:59:31;;;;;;;10.50;2.33;;;9.30;99.90;;;;;;5018831;28;20208;-45
2024/01/03 06:01:58;;;;;;;17.17;2.30;;;9.30;99.90;;;;;;5036471;28;20262;-44
2024/01/03 06:04:24;;;;;;;14.97;2.23;;;9.30;99.90;;;;;;5036622;28;20201;-45
2024/01/03 06:06:50;;;;;;;16.63;3.20;;;9.30;99.90;;;;;;5002319;28;20236;-47
2024/01/03 06:09:16;;;;;;;11.93;2.40;;;9.30;99.90;;;;;;5018741;28;20212;-46
2024/01/03 06:11:41;;;;;;;14.10;2.50;;;9.30;99.90;;;;;;5036236;28;20201;-46
2024/01/03 06:14:10;;;;;;;10.50;2.00;;;9.30;99.90;;;;;;5036408;28;20185;-46
2024/01/03 06:20:03;;;;;;;12.77;1.87;;;9.40;99.90;;;;;;5033640;28;20254;-47
2024/01/03 06:22:30;;;;;;;9.03;1.43;;;9.50;99.90;;;;;;5036379;28;20184;-45
2024/01/03 06:24:57;;;;;;;12.97;2.53;;;9.50;99.90;;;;;;5036093;28;20180;-45
2024/01/03 06:27:26;;;;;;;8.57;1.57;;;9.60;99.90;;;;;;5018165;28;20250;-44
2024/01/03 06:29:56;;;;;;;15.23;2.07;;;9.60;99.90;;;;;;5036174;28;20208;-47
2024/01/03 06:32:25;;;;;;;15.73;2.77;;;9.70;99.90;;;;;;5036035;28;20196;-43
2024/01/03 06:34:51;;;;;;;8.03;1.83;;;9.70;99.90;;;;;;5036709;28;20196;-45
2024/01/03 06:37:17;;;;;;;13.70;2.30;;;9.70;99.90;;;;;;5035831;28;20177;-43
2024/01/03 06:40:08;;;;;;;16.53;2.87;;;9.70;99.90;;;;;;5035923;28;20241;-45
2024/01/03 06:42:34;;;;;;;9.60;1.83;;;9.70;99.90;;;;;;5035640;28;20180;-47
2024/01/03 06:45:01;;;;;;;13.70;2.33;;;9.70;99.90;;;;;;5017068;28;20182;-45
2024/01/03 06:47:26;;;;;;;7.40;1.23;;;9.70;99.90;;;;;;5001744;28;20184;-45
2024/01/03 06:49:52;;;;;;;13.27;1.93;;;9.70;99.90;;;;;;5035974;28;20274;-47
2024/01/03 06:52:18;;;;;;;11.37;2.77;;;9.80;99.90;;;;;;5035490;28;20212;-47
2024/01/03 06:54:46;;;;;;;9.63;1.80;;;9.80;99.90;;;;;;5035692;28;20189;-46
2024/01/03 06:57:13;;;;;;;13.03;2.40;;;9.80;99.90;;;;;;5035476;28;20168;-46
2024/01/03 06:59:39;;;;;;;12.53;1.93;;;9.80;99.90;;;;;;5017835;28;20259;-45
2024/01/03 07:02:05;;;;;;;12.83;1.53;;;9.80;99.90;;;;;;5035364;28;20185;-48
2024/01/03 07:04:31;;;;;;;6.90;1.50;;;9.80;99.90;;;;;;5035264;28;20235;-46
2024/01/03 07:06:57;;;;;;;9.00;1.97;;;9.80;99.90;;;;;;5035807;28;20252;-45
2024/01/03 07:09:26;;;;;;;10.33;2.50;;;9.80;99.90;;;;;;5035138;28;20703;-47
2024/01/03 07:11:54;;;;;;;11.03;2.33;;;9.80;99.90;;;;;;5035108;28;20543;-47
2024/01/03 07:14:20;;;;;;;14.67;2.60;;;9.80;99.90;;;;;;5035508;28;20187;-45
2024/01/03 07:16:46;;;;;;;9.13;1.70;;;9.80;99.90;;;;;;5017659;28;20181;-45
2024/01/03 07:19:14;;;;;;;13.83;2.63;;;9.80;99.90;;;;;;5034992;28;20679;-46
2024/01/03 07:21:40;;;;;;;8.77;1.40;;;9.70;99.90;;;;;;5034878;28;20212;-45
2024/01/03 07:24:07;;;;;;;7.53;1.60;;;9.90;99.90;;;;;;5017542;28;20263;-46
2024/01/03 07:26:36;;;;;;;12.90;1.40;;;9.90;99.90;;;;;;5017263;28;20644;-47
2024/01/03 07:29:04;;;;;;;9.60;1.63;;;9.90;99.90;;;;;;5034926;28;20184;-44
2024/01/03 07:31:32;;;;;;;7.30;1.43;;;9.90;99.90;;;;;;5035001;28;20204;-45
2024/01/03 07:34:16;;;;;;;4.80;1.47;;;10.00;99.90;;;;;;5017269;28;20675;-45
2024/01/03 07:36:43;;;;;;;6.23;1.33;;;9.90;99.90;;;;;;5031230;28;20556;-44
2024/01/03 07:39:13;;;;;;;3.53;1.00;;;9.90;99.90;;;;;;5034506;28;20201;-45
2024/01/03 07:41:42;;;;;;;8.00;1.53;;;9.80;99.90;;;;;;5034799;28;20193;-45
2024/01/03 07:44:11;;;;;;;5.53;1.13;;;9.80;99.90;;;;;;5010790;28;20633;-46
2024/01/03 07:46:37;;;;;;;3.67;1.27;;;9.70;99.90;;;;;;5034497;28;20635;-44
2024/01/03 07:49:06;;;;;;;10.97;1.90;;;9.70;99.90;;;;;;4999626;28;20247;-46
2024/01/03 07:51:38;;;;;;;5.87;1.13;;;9.70;99.90;;;;;;5000231;28;20239;-47
2024/01/03 07:54:07;;;;;;;10.43;1.03;;;9.70;99.90;;;;;;5029346;28;20192;-45
2024/01/03 07:56:32;;;;;;;13.03;1.53;;;9.70;99.90;;;;;;5013455;28;20656;-46
2024/01/03 07:59:01;;;;;;;5.53;1.00;;;9.60;99.90;;;;;;5034408;28;20208;-46
2024/01/03 08:01:26;;;;;;;2.57;0.93;;;9.60;99.90;;;;;;5034075;28;20676;-45
2024/01/03 08:03:54;;;;;;;7.43;1.73;;;9.60;99.90;;;;;;5016434;28;20177;-43
2024/01/03 08:06:20;;;;;;;6.90;1.70;;;9.70;99.90;;;;;;5034402;28;20177;-48
2024/01/03 08:08:46;;;;;;;3.83;1.10;;;9.70;99.90;;;;;;5033385;28;20278;-45
2024/01/03 08:11:15;;;;;;;4.67;1.20;;;9.70;99.90;;;;;;5016386;28;20247;-41
2024/01/03 08:13:41;;;;;;;8.50;1.73;;;9.70;99.90;;;;;;5032802;28;20224;-42
2024/01/03 08:16:06;;;;;;;8.23;1.53;;;9.70;99.90;;;;;;5034244;28;20200;-41
2024/01/03 08:18:33;;;;;;;5.60;1.17;;;9.70;99.90;;;;;;5034642;28;20622;-41
2024/01/03 08:20:59;;;;;;;4.03;1.07;;;9.70;99.90;;;;;;5033891;28;20554;-41
2024/01/03 08:23:26;;;;;;;12.70;2.10;;;9.70;99.90;;;;;;5016110;28;20187;-41
2024/01/03 08:25:52;;;;;;;5.90;1.30;;;9.70;99.90;;;;;;5016100;28;20643;-42
2024/01/03 08:28:24;;;;;;;11.77;1.97;;;9.70;99.90;;;;;;5033911;28;20186;-41
2024/01/03 08:30:51;;;;;;;3.03;0.90;;;9.70;99.90;;;;;;5033893;28;20566;-41
2024/01/03 08:33:18;;;;;;;7.53;1.33;;;9.70;99.90;;;;;;5028573;28;20195;-41
2024/01/03 08:35:45;;;;;;;9.97;2.50;;;9.70;99.90;;;;;;4999626;28;20193;-41
2024/01/03 08:38:14;;;;;;;6.70;1.40;;;9.70;99.90;;;;;;5016527;28;20679;-41
2024/01/03 08:40:39;;;;;;;7.27;1.43;;;9.70;99.90;;;;;;5033932;28;20279;-42
2024/01/03 08:43:09;;;;;;;6.53;1.27;;;9.70;99.90;;;;;;5033723;28;20722;-43
2024/01/03 08:45:35;;;;;;;5.80;1.03;;;9.80;99.90;;;;;;5016402;28;20168;-41
2024/01/03 08:48:05;;;;;;;3.90;1.30;;;9.80;99.90;;;;;;5033924;28;20171;-41
2024/01/03 08:50:50;;;;;;;7.77;1.70;;;9.90;99.90;;;;;;5016503;28;20214;-42
2024/01/03 08:53:16;;;;;;;7.07;1.00;;;10.00;99.90;;;;;;5000236;28;20215;-41
2024/01/03 08:55:42;;;;;;;6.83;1.13;;;9.90;99.90;;;;;;5033075;28;20274;-43
2024/01/03 08:58:09;;;;;;;5.97;1.13;;;9.90;99.90;;;;;;5033678;28;20234;-42
2024/01/03 09:00:35;;;;;;;9.87;1.17;;;9.90;99.90;;;;;;5033637;28;20199;-42
2024/01/03 09:03:04;;;;;;;6.00;1.00;;;9.90;99.90;;;;;;5016065;28;20184;-42
2024/01/03 09:05:30;;;;;;;7.53;1.33;;;9.90;99.90;;;;;;5033645;28;20172;-45
2024/01/03 09:07:55;;;;;;;3.63;1.07;;;9.90;99.90;;;;;;5039270;28;20183;-43
2024/01/03 09:10:21;;;;;;;4.63;1.10;;;9.90;99.90;;;;;;5039902;28;20205;-46
2024/01/03 09:12:47;;;;;;;5.00;0.97;;;9.90;99.90;;;;;;5039780;28;20245;-46
2024/01/03 09:15:12;;;;;;;1.33;0.67;;;9.90;99.90;;;;;;5022108;28;20280;-45
2024/01/03 09:17:43;;;;;;;6.20;1.47;;;9.90;99.90;;;;;;5039717;28;20226;-45
2024/01/03 09:20:11;;;;;;;5.83;1.37;;;10.00;99.90;;;;;;5039908;28;20208;-48
2024/01/03 09:22:40;;;;;;;3.03;0.83;;;10.00;99.90;;;;;;5039821;28;20573;-46
2024/01/03 09:25:06;;;;;;;6.57;1.73;;;10.00;99.90;;;;;;5039977;28;20208;-46
2024/01/03 09:27:31;;;;;;;9.10;1.83;;;10.00;99.90;;;;;;5039691;28;20589;-47
2024/01/03 09:29:57;;;;;;;9.87;1.90;;;9.90;99.90;;;;;;5022276;28;20216;-47
2024/01/03 09:32:27;;;;;;;10.40;1.53;;;10.00;99.90;;;;;;5021976;28;20238;-45
2024/01/03 09:34:53;;;;;;;10.87;1.97;;;10.00;99.90;;;;;;5040197;28;20169;-47
2024/01/03 09:37:19;;;;;;;4.50;1.60;;;10.10;99.90;;;;;;5039579;28;20187;-47
2024/01/03 09:39:48;;;;;;;13.53;2.07;;;10.10;99.90;;;;;;5039507;28;20225;-46
2024/01/03 09:42:14;;;;;;;8.20;1.57;;;10.20;99.90;;;;;;5040003;28;20172;-44
2024/01/03 09:44:41;;;;;;;5.83;1.53;;;10.10;99.90;;;;;;5039555;28;20641;-45
2024/01/03 09:47:08;;;;;;;7.03;1.63;;;10.10;99.90;;;;;;5022556;28;20195;-46
2024/01/03 09:49:34;;;;;;;14.87;2.07;;;10.00;99.90;;;;;;5039616;28;20193;-47
2024/01/03 09:55:32;;;;;;;5.47;1.50;;;9.70;99.90;;;;;;5039621;28;20186;-46
2024/01/03 09:58:01;;;;;;;16.23;2.00;;;9.70;99.90;;;;;;5022046;28;20237;-44
2024/01/03 10:00:30;;;;;;;14.73;2.90;;;9.60;99.90;;;;;;5039728;28;20204;-45
2024/01/03 10:03:07;;;;;;;9.23;1.50;;;9.60;99.90;;;;;;5022282;28;20192;-45
2024/01/03 10:05:37;;;;;;;9.90;1.73;;;9.60;99.90;;;;;;5039455;28;20554;-45
2024/01/03 10:08:20;;;;;;;6.77;1.30;;;9.50;99.90;;;;;;5040029;28;20237;-45
2024/01/03 10:10:49;;;;;;;12.67;2.63;;;9.60;99.90;;;;;;5021676;28;20262;-44
2024/01/03 10:13:18;;;;;;;9.00;2.07;;;9.60;99.90;;;;;;5039359;28;20197;-45
2024/01/03 10:15:47;;;;;;;14.50;2.20;;;9.60;99.90;;;;;;5040005;28;20184;-44
2024/01/03 10:18:19;;;;;;;7.37;1.70;;;9.60;99.90;;;;;;5038299;28;20181;-43
2024/01/03 10:20:49;;;;;;;9.07;1.80;;;9.70;99.90;;;;;;5011181;28;20239;-45
2024/01/03 10:23:19;;;;;;;12.17;2.63;;;9.80;99.90;;;;;;5036214;28;20181;-45
2024/01/03 10:25:46;;;;;;;9.47;1.80;;;9.80;99.90;;;;;;5036051;28;20212;-46
2024/01/03 10:28:16;;;;;;;12.90;2.07;;;9.90;99.90;;;;;;5035730;28;20189;-47
2024/01/03 10:30:42;;;;;;;9.43;1.67;;;9.90;99.90;;;;;;5036047;28;20204;-45
2024/01/03 10:33:09;;;;;;;9.30;1.60;;;10.00;99.90;;;;;;5018370;28;20675;-45
2024/01/03 10:35:44;;;;;;;11.33;2.07;;;10.00;99.90;;;;;;5018295;28;20184;-47
2024/01/03 10:38:10;;;;;;;10.20;2.00;;;10.10;99.90;;;;;;5035981;28;20171;-43
2024/01/03 10:40:39;;;;;;;13.83;2.33;;;10.20;99.90;;;;;;5035968;28;20200;-45
2024/01/03 10:43:08;;;;;;;15.70;2.37;;;10.30;99.90;;;;;;5018768;28;20188;-47
2024/01/03 10:45:35;;;;;;;11.87;2.27;;;10.30;99.90;;;;;;5036004;28;20199;-45
2024/01/03 10:48:01;;;;;;;7.40;1.60;;;10.30;99.90;;;;;;5018620;28;20180;-46
2024/01/03 10:50:28;;;;;;;8.90;2.03;;;10.40;99.90;;;;;;5035630;28;20283;-45
2024/01/03 10:52:57;;;;;;;9.60;2.10;;;10.40;99.90;;;;;;5035830;28;20185;-45
2024/01/03 10:55:37;;;;;;;10.87;1.80;;;10.40;99.90;;;;;;5017960;28;20179;-44
2024/01/03 10:58:13;;;;;;;10.07;1.63;;;10.50;99.90;;;;;;5016779;28;20637;-46
2024/01/03 11:00:57;;;;;;;8.23;1.40;;;10.50;99.90;;;;;;5035747;28;20196;-45
2024/01/03 11:03:48;;;;;;;7.83;1.70;;;10.50;99.90;;;;;;5018425;28;20164;-45
2024/01/03 11:06:26;;;;;;;3.53;1.10;;;10.50;99.90;;;;;;5035514;28;20252;-46
2024/01/03 11:08:55;;;;;;;3.33;1.10;;;10.50;99.90;;;;;;5035671;28;20268;-44
2024/01/03 11:11:30;;;;;;;6.67;1.43;;;10.40;99.90;;;;;;5016810;28;20684;-46
2024/01/03 11:13:57;;;;;;;7.83;1.37;;;10.40;99.90;;;;;;5035249;28;20196;-45
2024/01/03 11:16:45;;;;;;;6.90;1.40;;;10.40;99.90;;;;;;5017628;28;20191;-44
2024/01/03 11:19:11;;;;;;;5.13;1.57;;;10.40;99.90;;;;;;5035639;28;20200;-45
2024/01/03 11:21:45;;;;;;;2.70;0.83;;;10.40;99.90;;;;;;5017580;28;20291;-46
2024/01/03 11:24:20;;;;;;;10.07;1.87;;;10.40;99.90;;;;;;5017673;28;20659;-44
2024/01/03 11:27:04;;;;;;;7.80;1.27;;;10.40;99.90;;;;;;5035306;28;20184;-45
2024/01/03 11:29:41;;;;;;;5.83;1.10;;;10.40;99.90;;;;;;5035071;28;20169;-45
2024/01/03 11:32:26;;;;;;;16.07;2.30;;;10.50;99.90;;;;;;5035105;28;20173;-44
2024/01/03 11:34:55;;;;;;;8.07;1.97;;;10.60;99.90;;;;;;5032799;28;20265;-46
2024/01/03 11:37:52;;;;;;;5.80;1.43;;;10.60;99.90;;;;;;5017143;28;20185;-44
2024/01/03 11:40:19;;;;;;;14.27;2.00;;;10.60;99.90;;;;;;5034229;28;20228;-45
2024/01/03 11:42:49;;;;;;;17.60;3.17;;;10.60;99.90;;;;;;5017402;28;20196;-44
2024/01/03 11:45:17;;;;;;;15.27;2.70;;;10.60;99.90;;;;;;5017041;28;20255;-47
2024/01/03 11:47:46;;;;;;;18.40;2.17;;;10.70;99.90;;;;;;5034561;28;20200;-44
2024/01/03 11:50:14;;;;;;;13.93;2.70;;;10.60;99.90;;;;;;5034914;28;20201;-45
2024/01/03 11:52:47;;;;;;;9.33;2.00;;;10.70;99.90;;;;;;5017165;28;20193;-45
2024/01/03 11:55:16;;;;;;;12.57;2.03;;;10.80;99.90;;;;;;5016713;28;20177;-44
2024/01/03 11:57:47;;;;;;;11.30;1.67;;;10.80;99.90;;;;;;5017513;28;20184;-46
2024/01/03 12:00:23;;;;;;;7.27;1.40;;;10.90;99.90;;;;;;5034668;28;20225;-45
2024/01/03 12:02:51;;;;;;;10.10;2.37;;;11.00;99.90;;;;;;5034131;28;20196;-45
2024/01/03 12:05:17;;;;;;;10.40;1.93;;;11.10;99.90;;;;;;5016705;28;20196;-44
2024/01/03 12:07:46;;;;;;;12.47;1.93;;;11.20;99.90;;;;;;5034280;28;20179;-46
2024/01/03 12:10:13;;;;;;;8.70;2.47;;;11.20;99.90;;;;;;5034482;28;20637;-47
2024/01/03 12:12:41;;;;;;;10.37;2.10;;;11.20;99.90;;;;;;5034071;28;20268;-42
2024/01/03 12:15:10;;;;;;;9.03;1.90;;;11.20;99.90;;;;;;5016555;28;20258;-42
2024/01/03 12:17:36;;;;;;;10.97;1.40;;;11.20;99.90;;;;;;5016320;28;20185;-43
2024/01/03 12:20:13;;;;;;;14.50;2.47;;;11.20;99.90;;;;;;5032904;28;20247;-41
2024/01/03 12:22:39;;;;;;;16.37;2.73;;;11.20;99.90;;;;;;4999814;28;20211;-46
2024/01/03 12:25:05;;;;;;;14.80;3.00;;;11.20;99.90;;;;;;5033970;28;20311;-45
2024/01/03 12:27:34;;;;;;;7.97;2.03;;;11.10;99.90;;;;;;5034363;28;20209;-47
2024/01/03 12:30:17;;;;;;;7.00;1.33;;;11.00;99.90;;;;;;5033952;28;20292;-45
2024/01/03 12:32:46;;;;;;;12.37;2.47;;;11.10;99.90;;;;;;5034067;28;20165;-47
2024/01/03 12:35:12;;;;;;;9.50;1.40;;;11.10;99.90;;;;;;5033736;28;20236;-48
2024/01/03 12:37:47;;;;;;;12.17;2.20;;;11.20;99.90;;;;;;5016314;28;20186;-48
2024/01/03 12:40:15;;;;;;;7.30;1.80;;;11.10;99.90;;;;;;5016560;28;20224;-45
2024/01/03 12:43:06;;;;;;;14.77;2.90;;;11.20;99.90;;;;;;5033183;28;20257;-45
2024/01/03 12:45:31;;;;;;;14.37;2.93;;;11.20;99.90;;;;;;5033008;28;20193;-46
2024/01/03 12:48:00;;;;;;;13.83;2.33;;;11.20;99.90;;;;;;5034116;28;20265;-44
2024/01/03 12:50:26;;;;;;;16.30;3.03;;;11.20;99.90;;;;;;5033575;28;20278;-47
2024/01/03 12:52:55;;;;;;;8.60;1.60;;;11.30;99.90;;;;;;5016105;28;20217;-46
2024/01/03 12:55:21;;;;;;;9.63;2.83;;;11.30;99.90;;;;;;5033369;28;20192;-41
2024/01/03 12:57:49;;;;;;;13.80;2.13;;;11.30;99.90;;;;;;5033626;28;20185;-43
2024/01/03 13:00:16;;;;;;;8.10;1.37;;;11.30;99.90;;;;;;5014444;28;20258;-42
2024/01/03 13:02:42;;;;;;;9.83;2.00;;;11.30;99.90;;;;;;5033619;28;20169;-41
2024/01/03 13:05:08;;;;;;;9.60;1.67;;;11.30;99.90;;;;;;5033313;28;20238;-41
2024/01/03 13:07:44;;;;;;;4.37;1.30;;;11.30;99.90;;;;;;5016075;28;20193;-42
2024/01/03 13:10:17;;;;;;;8.43;2.37;;;11.30;99.90;;;;;;5033215;28;20288;-43
2024/01/03 13:12:43;;;;;;;9.73;1.40;;;11.30;99.90;;;;;;5015198;28;20204;-42
2024/01/03 13:15:09;;;;;;;9.90;2.63;;;11.40;99.90;;;;;;5033789;28;20343;-47
2024/01/03 13:17:35;;;;;;;9.07;2.40;;;11.40;99.90;;;;;;5015966;28;20271;-44
2024/01/03 13:20:02;;;;;;;8.37;1.43;;;11.50;99.90;;;;;;5015404;28;20216;-43